sensor_id;sensor_type;location;lat;lon;timestamp;pressure;altitude;pressure_sealevel;temperature;humidity
7050;BME280;22263;52.260;10.548;2022-07-29T00:01:50;100773.63;;;18.21;84.45
7050;BME280;22263;52.260;10.548;2022-07-29T00:04:21;100779.97;;;18.25;83.89
7050;BME280;22263;52.260;10.548;2022-07-29T00:06:50;100782.34;;;18.26;83.87
7050;BME280;22263;52.260;10.548;2022-07-29T00:09:22;100779.56;;;18.26;83.81
7050;BME280;22263;52.260;10.548;2022-07-29T00:11:52;100775.88;;;18.29;83.42
7050;BME280;22263;52.260;10.548;2022-07-29T00:14:22;100775.16;;;18.25;83.56
7050;BME280;22263;52.260;10.548;2022-07-29T00:16:52;100770.78;;;18.24;84.14
7050;BME280;22263;52.260;10.548;2022-07-29T00:19:21;100767.06;;;18.31;83.58
7050;BME280;22263;52.260;10.548;2022-07-29T00:21:51;100765.97;;;18.25;83.36
7050;BME280;22263;52.260;10.548;2022-07-29T00:24:23;100758.44;;;18.22;83.97
7050;BME280;22263;52.260;10.548;2022-07-29T00:26:52;100760.47;;;18.18;83.91
7050;BME280;22263;52.260;10.548;2022-07-29T00:29:22;100753.78;;;18.12;84.45
7050;BME280;22263;52.260;10.548;2022-07-29T00:32:00;100743.06;;;18.07;85.09
7050;BME280;22263;52.260;10.548;2022-07-29T00:34:30;100745.41;;;18.08;85.22
7050;BME280;22263;52.260;10.548;2022-07-29T00:37:12;100741.00;;;18.11;85.29
7050;BME280;22263;52.260;10.548;2022-07-29T00:39:44;100733.41;;;18.11;85.19
7050;BME280;22263;52.260;10.548;2022-07-29T00:42:13;100731.38;;;18.12;84.85
7050;BME280;22263;52.260;10.548;2022-07-29T00:44:43;100731.88;;;18.07;85.01
7050;BME280;22263;52.260;10.548;2022-07-29T00:47:12;100729.91;;;18.04;85.82
7050;BME280;22263;52.260;10.548;2022-07-29T00:49:42;100730.75;;;18.01;86.26
7050;BME280;22263;52.260;10.548;2022-07-29T00:52:11;100730.09;;;17.93;87.40
7050;BME280;22263;52.260;10.548;2022-07-29T00:54:45;100726.16;;;17.87;88.28
7050;BME280;22263;52.260;10.548;2022-07-29T00:57:14;100728.16;;;17.86;88.86
7050;BME280;22263;52.260;10.548;2022-07-29T00:59:44;100720.63;;;17.83;88.95
7050;BME280;22263;52.260;10.548;2022-07-29T01:02:13;100718.19;;;17.85;88.75
7050;BME280;22263;52.260;10.548;2022-07-29T01:04:43;100712.25;;;17.83;88.66
7050;BME280;22263;52.260;10.548;2022-07-29T01:07:12;100722.56;;;17.86;88.60
7050;BME280;22263;52.260;10.548;2022-07-29T01:09:44;100720.16;;;17.89;88.37
7050;BME280;22263;52.260;10.548;2022-07-29T01:12:17;100715.31;;;17.89;87.86
7050;BME280;22263;52.260;10.548;2022-07-29T01:14:48;100704.56;;;17.88;87.89
7050;BME280;22263;52.260;10.548;2022-07-29T01:17:21;100713.31;;;17.90;87.93
7050;BME280;22263;52.260;10.548;2022-07-29T01:19:58;100710.91;;;17.92;87.46
7050;BME280;22263;52.260;10.548;2022-07-29T01:22:40;100697.31;;;17.90;87.49
7050;BME280;22263;52.260;10.548;2022-07-29T01:25:30;100699.72;;;17.92;87.80
7050;BME280;22263;52.260;10.548;2022-07-29T01:28:17;100712.50;;;17.93;87.58
7050;BME280;22263;52.260;10.548;2022-07-29T01:30:55;100710.53;;;17.90;87.37
7050;BME280;22263;52.260;10.548;2022-07-29T01:33:25;100703.78;;;17.87;87.65
7050;BME280;22263;52.260;10.548;2022-07-29T01:36:12;100692.59;;;17.87;88.10
7050;BME280;22263;52.260;10.548;2022-07-29T01:38:44;100694.59;;;17.86;88.36
7050;BME280;22263;52.260;10.548;2022-07-29T01:41:17;100692.53;;;17.91;87.70
7050;BME280;22263;52.260;10.548;2022-07-29T01:43:51;100690.66;;;17.84;88.13
7050;BME280;22263;52.260;10.548;2022-07-29T01:46:30;100686.25;;;17.83;88.24
7050;BME280;22263;52.260;10.548;2022-07-29T01:49:05;100681.47;;;17.83;88.62
7050;BME280;22263;52.260;10.548;2022-07-29T01:51:40;100673.06;;;17.83;88.03
7050;BME280;22263;52.260;10.548;2022-07-29T01:54:13;100678.94;;;17.89;87.70
7050;BME280;22263;52.260;10.548;2022-07-29T01:56:45;100675.41;;;17.85;88.18
7050;BME280;22263;52.260;10.548;2022-07-29T01:59:17;100673.97;;;17.77;88.98
7050;BME280;22263;52.260;10.548;2022-07-29T02:01:52;100668.78;;;17.75;89.18
7050;BME280;22263;52.260;10.548;2022-07-29T02:04:23;100661.63;;;17.74;89.20
7050;BME280;22263;52.260;10.548;2022-07-29T02:07:00;100664.84;;;17.73;88.97
7050;BME280;22263;52.260;10.548;2022-07-29T02:09:34;100663.63;;;17.74;88.70
7050;BME280;22263;52.260;10.548;2022-07-29T02:12:06;100671.69;;;17.68;88.96
7050;BME280;22263;52.260;10.548;2022-07-29T02:14:40;100672.16;;;17.63;90.02
7050;BME280;22263;52.260;10.548;2022-07-29T02:17:13;100665.44;;;17.57;90.81
7050;BME280;22263;52.260;10.548;2022-07-29T02:19:47;100675.75;;;17.64;91.02
7050;BME280;22263;52.260;10.548;2022-07-29T02:22:18;100661.44;;;17.58;92.31
7050;BME280;22263;52.260;10.548;2022-07-29T02:24:50;100659.84;;;17.57;92.50
7050;BME280;22263;52.260;10.548;2022-07-29T02:27:20;100652.66;;;17.56;93.07
7050;BME280;22263;52.260;10.548;2022-07-29T02:29:52;100655.50;;;17.53;93.20
7050;BME280;22263;52.260;10.548;2022-07-29T02:32:25;100652.03;;;17.45;94.34
7050;BME280;22263;52.260;10.548;2022-07-29T02:34:58;100648.13;;;17.39;95.61
7050;BME280;22263;52.260;10.548;2022-07-29T02:37:29;100639.41;;;17.33;95.76
7050;BME280;22263;52.260;10.548;2022-07-29T02:40:00;100639.03;;;17.31;96.65
7050;BME280;22263;52.260;10.548;2022-07-29T02:42:31;100640.72;;;17.25;96.86
7050;BME280;22263;52.260;10.548;2022-07-29T02:45:03;100632.38;;;17.22;96.99
7050;BME280;22263;52.260;10.548;2022-07-29T02:47:39;100625.69;;;17.16;97.70
7050;BME280;22263;52.260;10.548;2022-07-29T02:50:12;100629.56;;;17.22;97.85
7050;BME280;22263;52.260;10.548;2022-07-29T02:52:47;100631.59;;;17.21;97.82
7050;BME280;22263;52.260;10.548;2022-07-29T02:55:25;100632.81;;;17.20;98.35
7050;BME280;22263;52.260;10.548;2022-07-29T02:58:00;100629.22;;;17.20;99.15
7050;BME280;22263;52.260;10.548;2022-07-29T03:00:32;100633.59;;;17.21;99.43
7050;BME280;22263;52.260;10.548;2022-07-29T03:03:08;100635.16;;;17.22;99.81
7050;BME280;22263;52.260;10.548;2022-07-29T03:05:40;100632.75;;;17.24;99.69
7050;BME280;22263;52.260;10.548;2022-07-29T03:08:11;100637.59;;;17.20;100.00
7050;BME280;22263;52.260;10.548;2022-07-29T03:10:44;100636.81;;;17.19;99.44
7050;BME280;22263;52.260;10.548;2022-07-29T03:13:14;100642.88;;;17.14;99.79
7050;BME280;22263;52.260;10.548;2022-07-29T03:15:43;100639.34;;;17.10;99.82
7050;BME280;22263;52.260;10.548;2022-07-29T03:18:16;100645.72;;;17.11;99.80
7050;BME280;22263;52.260;10.548;2022-07-29T03:20:46;100643.72;;;17.11;99.61
7050;BME280;22263;52.260;10.548;2022-07-29T03:23:18;100648.13;;;17.09;99.56
7050;BME280;22263;52.260;10.548;2022-07-29T03:25:50;100644.91;;;17.10;99.17
7050;BME280;22263;52.260;10.548;2022-07-29T03:28:20;100650.09;;;17.12;98.82
7050;BME280;22263;52.260;10.548;2022-07-29T03:30:52;100648.88;;;17.13;98.13
7050;BME280;22263;52.260;10.548;2022-07-29T03:33:24;100647.66;;;17.14;98.19
7050;BME280;22263;52.260;10.548;2022-07-29T03:35:55;100650.91;;;17.09;98.74
7050;BME280;22263;52.260;10.548;2022-07-29T03:38:28;100636.13;;;17.12;98.35
7050;BME280;22263;52.260;10.548;2022-07-29T03:41:02;100631.00;;;17.07;99.31
7050;BME280;22263;52.260;10.548;2022-07-29T03:43:35;100631.94;;;16.96;100.00
7050;BME280;22263;52.260;10.548;2022-07-29T03:46:16;100627.63;;;16.88;100.00
7050;BME280;22263;52.260;10.548;2022-07-29T03:48:53;100628.41;;;16.92;100.00
7050;BME280;22263;52.260;10.548;2022-07-29T03:51:25;100620.88;;;16.86;100.00
7050;BME280;22263;52.260;10.548;2022-07-29T03:53:59;100616.16;;;16.83;100.00
7050;BME280;22263;52.260;10.548;2022-07-29T03:56:40;100619.72;;;16.83;100.00
7050;BME280;22263;52.260;10.548;2022-07-29T03:59:11;100621.44;;;16.74;100.00
7050;BME280;22263;52.260;10.548;2022-07-29T04:01:42;100609.97;;;16.65;100.00
7050;BME280;22263;52.260;10.548;2022-07-29T04:04:14;100626.66;;;16.72;100.00
7050;BME280;22263;52.260;10.548;2022-07-29T04:06:46;100625.38;;;16.76;100.00
7050;BME280;22263;52.260;10.548;2022-07-29T04:09:15;100627.03;;;16.74;100.00
7050;BME280;22263;52.260;10.548;2022-07-29T04:11:45;100632.22;;;16.72;100.00
7050;BME280;22263;52.260;10.548;2022-07-29T04:14:30;100617.13;;;16.66;100.00
7050;BME280;22263;52.260;10.548;2022-07-29T04:17:00;100624.31;;;16.67;100.00
7050;BME280;22263;52.260;10.548;2022-07-29T04:19:33;100627.78;;;16.74;100.00
7050;BME280;22263;52.260;10.548;2022-07-29T04:22:02;100625.38;;;16.76;100.00
7050;BME280;22263;52.260;10.548;2022-07-29T04:24:32;100630.97;;;16.76;100.00
7050;BME280;22263;52.260;10.548;2022-07-29T04:27:01;100628.13;;;16.80;100.00
7050;BME280;22263;52.260;10.548;2022-07-29T04:29:31;100621.22;;;16.91;100.00
7050;BME280;22263;52.260;10.548;2022-07-29T04:32:00;100626.38;;;16.93;100.00
7050;BME280;22263;52.260;10.548;2022-07-29T04:34:29;100622.28;;;17.01;100.00
7050;BME280;22263;52.260;10.548;2022-07-29T04:37:01;100623.16;;;16.94;100.00
7050;BME280;22263;52.260;10.548;2022-07-29T04:39:31;100629.50;;;16.98;100.00
7050;BME280;22263;52.260;10.548;2022-07-29T04:42:01;100626.69;;;16.98;100.00
7050;BME280;22263;52.260;10.548;2022-07-29T04:44:33;100629.78;;;17.08;100.00
7050;BME280;22263;52.260;10.548;2022-07-29T04:47:08;100631.75;;;17.11;100.00
7050;BME280;22263;52.260;10.548;2022-07-29T04:49:38;100643.34;;;17.09;100.00
7050;BME280;22263;52.260;10.548;2022-07-29T04:52:10;100628.09;;;17.14;100.00
7050;BME280;22263;52.260;10.548;2022-07-29T04:54:39;100634.44;;;17.18;100.00
7050;BME280;22263;52.260;10.548;2022-07-29T04:57:09;100635.59;;;17.20;100.00
7050;BME280;22263;52.260;10.548;2022-07-29T04:59:38;100642.69;;;17.28;100.00
7050;BME280;22263;52.260;10.548;2022-07-29T05:02:07;100631.13;;;17.26;100.00
7050;BME280;22263;52.260;10.548;2022-07-29T05:04:37;100641.41;;;17.33;100.00
7050;BME280;22263;52.260;10.548;2022-07-29T05:07:06;100626.50;;;17.43;100.00
7050;BME280;22263;52.260;10.548;2022-07-29T05:09:38;100636.66;;;17.57;100.00
7050;BME280;22263;52.260;10.548;2022-07-29T05:12:08;100628.25;;;17.60;100.00
7050;BME280;22263;52.260;10.548;2022-07-29T05:14:38;100623.94;;;17.52;100.00
7050;BME280;22263;52.260;10.548;2022-07-29T05:17:07;100617.16;;;17.53;100.00
7050;BME280;22263;52.260;10.548;2022-07-29T05:19:37;100614.56;;;17.66;100.00
7050;BME280;22263;52.260;10.548;2022-07-29T05:22:06;100608.09;;;17.72;100.00
7050;BME280;22263;52.260;10.548;2022-07-29T05:24:38;100619.22;;;17.76;100.00
7050;BME280;22263;52.260;10.548;2022-07-29T05:27:08;100629.13;;;17.80;100.00
7050;BME280;22263;52.260;10.548;2022-07-29T05:29:37;100618.19;;;17.90;100.00
7050;BME280;22263;52.260;10.548;2022-07-29T05:32:11;100614.91;;;17.95;100.00
7050;BME280;22263;52.260;10.548;2022-07-29T05:34:41;100608.50;;;17.94;100.00
7050;BME280;22263;52.260;10.548;2022-07-29T05:37:17;100614.22;;;18.10;100.00
7050;BME280;22263;52.260;10.548;2022-07-29T05:39:49;100622.25;;;18.08;100.00
7050;BME280;22263;52.260;10.548;2022-07-29T05:42:22;100623.81;;;18.13;100.00
7050;BME280;22263;52.260;10.548;2022-07-29T05:44:52;100625.25;;;18.21;100.00
7050;BME280;22263;52.260;10.548;2022-07-29T05:47:22;100624.03;;;18.22;100.00
7050;BME280;22263;52.260;10.548;2022-07-29T05:49:52;100626.59;;;18.13;100.00
7050;BME280;22263;52.260;10.548;2022-07-29T05:52:21;100637.16;;;18.25;100.00
7050;BME280;22263;52.260;10.548;2022-07-29T05:54:53;100633.53;;;18.48;100.00
7050;BME280;22263;52.260;10.548;2022-07-29T05:57:23;100637.06;;;18.52;100.00
7050;BME280;22263;52.260;10.548;2022-07-29T05:59:53;100632.50;;;18.61;100.00
7050;BME280;22263;52.260;10.548;2022-07-29T06:02:24;100634.25;;;18.52;100.00
7050;BME280;22263;52.260;10.548;2022-07-29T06:04:54;100634.72;;;18.50;100.00
7050;BME280;22263;52.260;10.548;2022-07-29T06:07:23;100636.47;;;18.64;100.00
7050;BME280;22263;52.260;10.548;2022-07-29T06:09:55;100639.28;;;18.84;100.00
7050;BME280;22263;52.260;10.548;2022-07-29T06:12:25;100645.44;;;18.95;100.00
7050;BME280;22263;52.260;10.548;2022-07-29T06:14:54;100656.66;;;18.95;100.00
7050;BME280;22263;52.260;10.548;2022-07-29T06:17:24;100645.50;;;19.11;99.46
7050;BME280;22263;52.260;10.548;2022-07-29T06:19:53;100641.47;;;19.32;98.08
7050;BME280;22263;52.260;10.548;2022-07-29T06:22:23;100631.66;;;19.40;97.45
7050;BME280;22263;52.260;10.548;2022-07-29T06:24:55;100623.59;;;19.42;97.39
7050;BME280;22263;52.260;10.548;2022-07-29T06:27:25;100624.34;;;19.46;97.00
7050;BME280;22263;52.260;10.548;2022-07-29T06:29:54;100617.22;;;19.57;95.99
7050;BME280;22263;52.260;10.548;2022-07-29T06:32:25;100616.09;;;19.55;96.31
7050;BME280;22263;52.260;10.548;2022-07-29T06:34:54;100618.13;;;19.71;95.73
7050;BME280;22263;52.260;10.548;2022-07-29T06:37:43;100618.84;;;19.75;95.01
7050;BME280;22263;52.260;10.548;2022-07-29T06:40:17;100621.91;;;19.80;94.35
7050;BME280;22263;52.260;10.548;2022-07-29T06:42:59;100615.84;;;19.82;93.56
7050;BME280;22263;52.260;10.548;2022-07-29T06:45:28;100610.91;;;19.86;93.16
7050;BME280;22263;52.260;10.548;2022-07-29T06:47:58;100617.84;;;19.81;94.09
7050;BME280;22263;52.260;10.548;2022-07-29T06:50:27;100606.81;;;19.74;94.93
7050;BME280;22263;52.260;10.548;2022-07-29T06:52:57;100622.50;;;19.72;94.73
7050;BME280;22263;52.260;10.548;2022-07-29T06:55:29;100621.72;;;19.71;95.67
7050;BME280;22263;52.260;10.548;2022-07-29T06:57:59;100616.09;;;19.71;96.20
7050;BME280;22263;52.260;10.548;2022-07-29T07:00:28;100616.19;;;19.84;96.13
7050;BME280;22263;52.260;10.548;2022-07-29T07:02:57;100627.69;;;20.06;93.83
7050;BME280;22263;52.260;10.548;2022-07-29T07:05:27;100629.75;;;20.34;91.94
7050;BME280;22263;52.260;10.548;2022-07-29T07:07:56;100629.56;;;20.57;88.41
7050;BME280;22263;52.260;10.548;2022-07-29T07:10:28;100630.13;;;20.65;88.42
7050;BME280;22263;52.260;10.548;2022-07-29T07:12:58;100621.94;;;21.12;84.12
7050;BME280;22263;52.260;10.548;2022-07-29T07:15:28;100625.59;;;21.38;81.10
7050;BME280;22263;52.260;10.548;2022-07-29T07:18:06;100643.03;;;21.83;76.59
7050;BME280;22263;52.260;10.548;2022-07-29T07:20:36;100634.16;;;21.47;79.90
7050;BME280;22263;52.260;10.548;2022-07-29T07:23:06;100627.50;;;21.91;76.46
7050;BME280;22263;52.260;10.548;2022-07-29T07:25:38;100621.16;;;22.25;74.51
7050;BME280;22263;52.260;10.548;2022-07-29T07:28:08;100616.16;;;22.64;70.88
7050;BME280;22263;52.260;10.548;2022-07-29T07:30:38;100603.59;;;22.65;68.38
7050;BME280;22263;52.260;10.548;2022-07-29T07:33:08;100589.63;;;22.61;69.05
7050;BME280;22263;52.260;10.548;2022-07-29T07:35:37;100596.66;;;22.22;72.41
7050;BME280;22263;52.260;10.548;2022-07-29T07:38:07;100597.72;;;22.15;74.33
7050;BME280;22263;52.260;10.548;2022-07-29T07:40:39;100596.13;;;22.49;72.15
7050;BME280;22263;52.260;10.548;2022-07-29T07:43:09;100593.56;;;23.07;69.67
7050;BME280;22263;52.260;10.548;2022-07-29T07:45:39;100586.81;;;23.75;65.69
7050;BME280;22263;52.260;10.548;2022-07-29T07:48:08;100590.00;;;24.14;62.77
7050;BME280;22263;52.260;10.548;2022-07-29T07:50:38;100595.09;;;24.64;58.59
7050;BME280;22263;52.260;10.548;2022-07-29T07:53:08;100596.03;;;24.43;60.07
7050;BME280;22263;52.260;10.548;2022-07-29T07:55:42;100591.31;;;24.58;58.68
7050;BME280;22263;52.260;10.548;2022-07-29T07:58:32;100593.34;;;24.67;59.99
7050;BME280;22263;52.260;10.548;2022-07-29T08:01:01;100587.00;;;24.99;57.15
7050;BME280;22263;52.260;10.548;2022-07-29T08:03:32;100589.09;;;24.90;57.16
7050;BME280;22263;52.260;10.548;2022-07-29T08:06:02;100579.69;;;24.56;59.07
7050;BME280;22263;52.260;10.548;2022-07-29T08:08:32;100577.97;;;24.50;59.24
7050;BME280;22263;52.260;10.548;2022-07-29T08:11:04;100577.47;;;24.79;59.22
7050;BME280;22263;52.260;10.548;2022-07-29T08:13:36;100583.59;;;24.68;59.11
7050;BME280;22263;52.260;10.548;2022-07-29T08:16:06;100578.41;;;24.57;59.56
7050;BME280;22263;52.260;10.548;2022-07-29T08:18:44;100574.78;;;24.66;59.77
7050;BME280;22263;52.260;10.548;2022-07-29T08:21:14;100582.06;;;24.49;59.90
7050;BME280;22263;52.260;10.548;2022-07-29T08:23:44;100586.59;;;24.64;58.86
7050;BME280;22263;52.260;10.548;2022-07-29T08:26:28;100591.16;;;24.53;59.12
7050;BME280;22263;52.260;10.548;2022-07-29T08:28:58;100586.91;;;24.39;60.85
7050;BME280;22263;52.260;10.548;2022-07-29T08:31:27;100597.41;;;24.66;59.21
7050;BME280;22263;52.260;10.548;2022-07-29T08:33:57;100595.38;;;24.75;57.58
7050;BME280;22263;52.260;10.548;2022-07-29T08:36:27;100596.19;;;24.58;58.30
7050;BME280;22263;52.260;10.548;2022-07-29T08:38:57;100585.03;;;24.54;58.25
7050;BME280;22263;52.260;10.548;2022-07-29T08:41:29;100594.72;;;24.99;57.82
7050;BME280;22263;52.260;10.548;2022-07-29T08:43:58;100594.72;;;25.50;55.34
7050;BME280;22263;52.260;10.548;2022-07-29T08:46:28;100588.47;;;26.02;52.14
7050;BME280;22263;52.260;10.548;2022-07-29T08:48:57;100584.53;;;26.77;49.53
7050;BME280;22263;52.260;10.548;2022-07-29T08:51:27;100592.03;;;27.18;49.39
7050;BME280;22263;52.260;10.548;2022-07-29T08:53:57;100588.41;;;28.43;46.25
7050;BME280;22263;52.260;10.548;2022-07-29T08:56:29;100587.38;;;28.66;44.52
7050;BME280;22263;52.260;10.548;2022-07-29T08:59:02;100591.06;;;27.71;46.29
7050;BME280;22263;52.260;10.548;2022-07-29T09:01:33;100595.31;;;27.31;47.54
7050;BME280;22263;52.260;10.548;2022-07-29T09:04:11;100593.03;;;27.65;47.03
7050;BME280;22263;52.260;10.548;2022-07-29T09:06:44;100591.47;;;27.64;47.29
7050;BME280;22263;52.260;10.548;2022-07-29T09:09:14;100590.16;;;28.00;46.51
7050;BME280;22263;52.260;10.548;2022-07-29T09:11:46;100588.56;;;27.79;47.21
7050;BME280;22263;52.260;10.548;2022-07-29T09:14:15;100590.03;;;27.24;48.12
7050;BME280;22263;52.260;10.548;2022-07-29T09:16:53;100579.56;;;27.30;48.59
7050;BME280;22263;52.260;10.548;2022-07-29T09:19:29;100581.97;;;27.67;48.12
7050;BME280;22263;52.260;10.548;2022-07-29T09:22:03;100578.50;;;27.28;49.80
7050;BME280;22263;52.260;10.548;2022-07-29T09:24:38;100579.84;;;26.59;50.48
7050;BME280;22263;52.260;10.548;2022-07-29T09:27:18;100584.91;;;26.55;50.59
7050;BME280;22263;52.260;10.548;2022-07-29T09:29:56;100588.47;;;26.02;52.04
7050;BME280;22263;52.260;10.548;2022-07-29T09:32:26;100583.63;;;26.41;51.55
7050;BME280;22263;52.260;10.548;2022-07-29T09:35:14;100592.88;;;26.27;52.07
7050;BME280;22263;52.260;10.548;2022-07-29T09:37:44;100577.16;;;26.94;50.44
7050;BME280;22263;52.260;10.548;2022-07-29T09:40:16;100579.72;;;27.91;47.73
7050;BME280;22263;52.260;10.548;2022-07-29T09:42:49;100582.69;;;29.46;44.32
7050;BME280;22263;52.260;10.548;2022-07-29T09:45:29;100558.44;;;30.10;42.01
7050;BME280;22263;52.260;10.548;2022-07-29T09:48:00;100565.16;;;29.59;43.13
7050;BME280;22263;52.260;10.548;2022-07-29T09:50:45;100564.00;;;30.41;41.73
7050;BME280;22263;52.260;10.548;2022-07-29T09:53:30;100555.03;;;31.37;40.06
7050;BME280;22263;52.260;10.548;2022-07-29T09:56:00;100559.75;;;32.26;39.15
7050;BME280;22263;52.260;10.548;2022-07-29T09:58:32;100548.31;;;32.72;38.74
7050;BME280;22263;52.260;10.548;2022-07-29T10:01:02;100550.72;;;32.11;39.02
7050;BME280;22263;52.260;10.548;2022-07-29T10:03:32;100555.53;;;32.38;38.67
7050;BME280;22263;52.260;10.548;2022-07-29T10:06:06;100548.44;;;33.51;37.29
7050;BME280;22263;52.260;10.548;2022-07-29T10:08:36;100550.84;;;32.40;38.85
7050;BME280;22263;52.260;10.548;2022-07-29T10:11:12;100545.41;;;32.31;38.56
7050;BME280;22263;52.260;10.548;2022-07-29T10:13:45;100540.06;;;32.52;37.72
7050;BME280;22263;52.260;10.548;2022-07-29T10:16:15;100537.63;;;31.41;39.92
7050;BME280;22263;52.260;10.548;2022-07-29T10:18:45;100533.47;;;30.97;40.70
7050;BME280;22263;52.260;10.548;2022-07-29T10:21:16;100532.94;;;30.99;40.55
7050;BME280;22263;52.260;10.548;2022-07-29T10:24:01;100537.84;;;30.70;40.98
7050;BME280;22263;52.260;10.548;2022-07-29T10:26:31;100536.03;;;30.56;41.07
7050;BME280;22263;52.260;10.548;2022-07-29T10:29:04;100534.59;;;30.18;41.77
7050;BME280;22263;52.260;10.548;2022-07-29T10:31:44;100534.72;;;29.87;42.49
7050;BME280;22263;52.260;10.548;2022-07-29T10:34:23;100535.16;;;29.69;43.10
7050;BME280;22263;52.260;10.548;2022-07-29T10:37:07;100532.16;;;29.46;43.47
7050;BME280;22263;52.260;10.548;2022-07-29T10:39:53;100538.06;;;28.29;45.89
7050;BME280;22263;52.260;10.548;2022-07-29T10:42:25;100542.81;;;28.37;46.23
7050;BME280;22263;52.260;10.548;2022-07-29T10:45:20;100533.38;;;28.72;45.67
7050;BME280;22263;52.260;10.548;2022-07-29T10:48:02;100530.75;;;28.99;44.87
7050;BME280;22263;52.260;10.548;2022-07-29T10:50:57;100535.28;;;28.60;45.67
7050;BME280;22263;52.260;10.548;2022-07-29T10:53:47;100530.19;;;28.18;46.92
7050;BME280;22263;52.260;10.548;2022-07-29T10:56:25;100522.56;;;28.30;46.36
7050;BME280;22263;52.260;10.548;2022-07-29T10:59:22;100525.03;;;28.02;46.52
7050;BME280;22263;52.260;10.548;2022-07-29T11:05:11;100530.50;;;28.26;45.79
7050;BME280;22263;52.260;10.548;2022-07-29T11:10:46;100523.97;;;27.99;46.23
7050;BME280;22263;52.260;10.548;2022-07-29T11:16:19;100525.59;;;27.65;46.89
7050;BME280;22263;52.260;10.548;2022-07-29T11:21:58;100519.84;;;27.80;46.33
7050;BME280;22263;52.260;10.548;2022-07-29T11:24:29;100524.53;;;27.83;46.32
7050;BME280;22263;52.260;10.548;2022-07-29T11:27:14;100527.31;;;27.77;46.29
7050;BME280;22263;52.260;10.548;2022-07-29T11:29:53;100517.88;;;27.86;46.01
7050;BME280;22263;52.260;10.548;2022-07-29T11:32:25;100521.63;;;27.57;46.11
7050;BME280;22263;52.260;10.548;2022-07-29T11:35:12;100514.38;;;27.56;46.25
7050;BME280;22263;52.260;10.548;2022-07-29T11:41:25;100517.22;;;27.42;47.26
7050;BME280;22263;52.260;10.548;2022-07-29T11:43:59;100512.41;;;27.48;46.89
7050;BME280;22263;52.260;10.548;2022-07-29T11:46:44;100506.19;;;27.64;46.24
7050;BME280;22263;52.260;10.548;2022-07-29T11:49:19;100506.50;;;27.66;45.39
7050;BME280;22263;52.260;10.548;2022-07-29T11:52:10;100508.00;;;27.12;47.13
7050;BME280;22263;52.260;10.548;2022-07-29T11:54:42;100509.31;;;27.31;46.27
7050;BME280;22263;52.260;10.548;2022-07-29T11:57:28;100509.75;;;27.44;45.97
7050;BME280;22263;52.260;10.548;2022-07-29T12:00:05;100513.44;;;27.65;45.67
7050;BME280;22263;52.260;10.548;2022-07-29T12:02:41;100507.06;;;27.70;45.64
7050;BME280;22263;52.260;10.548;2022-07-29T12:05:14;100503.22;;;27.73;45.99
7050;BME280;22263;52.260;10.548;2022-07-29T12:08:15;100509.69;;;27.73;45.90
7050;BME280;22263;52.260;10.548;2022-07-29T12:10:46;100494.50;;;27.77;45.63
7050;BME280;22263;52.260;10.548;2022-07-29T12:13:20;100496.03;;;27.77;44.75
7050;BME280;22263;52.260;10.548;2022-07-29T12:16:04;100499.50;;;27.87;40.89
7050;BME280;22263;52.260;10.548;2022-07-29T12:18:33;100501.53;;;27.81;39.59
7050;BME280;22263;52.260;10.548;2022-07-29T12:21:03;100504.28;;;27.75;38.71
7050;BME280;22263;52.260;10.548;2022-07-29T12:23:34;100497.81;;;27.55;38.95
7050;BME280;22263;52.260;10.548;2022-07-29T12:26:04;100501.78;;;27.63;39.27
7050;BME280;22263;52.260;10.548;2022-07-29T12:28:53;100493.97;;;27.58;39.14
7050;BME280;22263;52.260;10.548;2022-07-29T12:31:27;100496.41;;;27.65;38.73
7050;BME280;22263;52.260;10.548;2022-07-29T12:34:10;100493.69;;;27.56;38.99
7050;BME280;22263;52.260;10.548;2022-07-29T12:36:40;100492.63;;;27.39;39.36
7050;BME280;22263;52.260;10.548;2022-07-29T12:39:10;100486.53;;;27.60;39.48
7050;BME280;22263;52.260;10.548;2022-07-29T12:41:40;100497.81;;;27.75;39.05
7050;BME280;22263;52.260;10.548;2022-07-29T12:44:12;100491.44;;;27.80;38.91
7050;BME280;22263;52.260;10.548;2022-07-29T12:46:41;100497.69;;;27.84;38.68
7050;BME280;22263;52.260;10.548;2022-07-29T12:49:21;100493.00;;;27.81;38.44
7050;BME280;22263;52.260;10.548;2022-07-29T12:51:50;100498.69;;;27.81;38.25
7050;BME280;22263;52.260;10.548;2022-07-29T12:54:21;100495.13;;;27.66;38.83
7050;BME280;22263;52.260;10.548;2022-07-29T12:56:58;100495.41;;;27.88;38.47
7050;BME280;22263;52.260;10.548;2022-07-29T12:59:33;100501.22;;;27.79;38.31
7050;BME280;22263;52.260;10.548;2022-07-29T13:02:03;100492.78;;;27.85;38.10
7050;BME280;22263;52.260;10.548;2022-07-29T13:04:33;100497.75;;;27.90;38.42
7050;BME280;22263;52.260;10.548;2022-07-29T13:07:04;100491.44;;;28.00;38.31
7050;BME280;22263;52.260;10.548;2022-07-29T13:09:37;100494.41;;;28.11;38.20
7050;BME280;22263;52.260;10.548;2022-07-29T13:12:08;100491.41;;;28.21;37.90
7050;BME280;22263;52.260;10.548;2022-07-29T13:14:41;100491.63;;;28.17;38.03
7050;BME280;22263;52.260;10.548;2022-07-29T13:17:13;100493.25;;;28.03;38.41
7050;BME280;22263;52.260;10.548;2022-07-29T13:19:44;100483.53;;;28.10;38.73
7050;BME280;22263;52.260;10.548;2022-07-29T13:22:16;100478.19;;;28.17;38.40
7050;BME280;22263;52.260;10.548;2022-07-29T13:24:50;100489.41;;;28.27;38.43
7050;BME280;22263;52.260;10.548;2022-07-29T13:27:21;100480.75;;;28.15;38.53
7050;BME280;22263;52.260;10.548;2022-07-29T13:29:54;100485.28;;;28.28;38.81
7050;BME280;22263;52.260;10.548;2022-07-29T13:32:24;100475.63;;;28.20;38.72
7050;BME280;22263;52.260;10.548;2022-07-29T13:34:55;100477.97;;;28.21;38.36